createdAt,value
2018-07-17T00:01:09.630Z,66.00
2018-07-17T00:02:50.345Z,67.50
2018-07-17T00:04:28.032Z,69.50
2018-07-17T00:06:06.733Z,67.40
2018-07-17T00:07:43.789Z,66.20
2018-07-17T00:09:20.610Z,65.60
2018-07-17T00:10:57.981Z,65.90
2018-07-17T00:12:35.811Z,66.10
2018-07-17T00:14:12.312Z,65.10
2018-07-17T00:15:49.394Z,65.60
2018-07-17T00:17:25.667Z,69.30
2018-07-17T00:19:07.810Z,68.90
2018-07-17T00:20:48.503Z,69.40
2018-07-17T00:22:25.348Z,70.60
2018-07-17T00:24:01.828Z,71.00
2018-07-17T00:25:39.913Z,71.10
2018-07-17T00:27:16.983Z,70.80
2018-07-17T00:28:54.539Z,71.30
2018-07-17T00:30:37.296Z,71.20
2018-07-17T00:32:15.544Z,70.80
2018-07-17T00:33:52.358Z,69.00
2018-07-17T00:35:29.511Z,67.70
2018-07-17T00:37:06.191Z,66.70
2018-07-17T00:38:42.615Z,69.50
2018-07-17T00:40:19.918Z,70.50
2018-07-17T00:42:00.245Z,72.20
2018-07-17T00:43:38.057Z,72.70
2018-07-17T00:45:16.154Z,71.50
2018-07-17T00:46:54.634Z,71.80
2018-07-17T00:48:32.869Z,72.50
2018-07-17T00:50:09.822Z,71.30
2018-07-17T00:51:47.396Z,70.60
2018-07-17T00:53:23.716Z,69.40
2018-07-17T00:55:01.398Z,69.00
2018-07-17T00:56:37.767Z,69.10
2018-07-17T00:58:15.497Z,69.50
2018-07-17T01:01:33.793Z,71.70
2018-07-17T01:03:15.561Z,70.70
2018-07-17T01:04:56.989Z,70.90
2018-07-17T01:06:39.402Z,71.30
2018-07-17T01:10:02.735Z,71.20
2018-07-17T01:11:44.060Z,71.30
2018-07-17T01:13:27.265Z,72.10
2018-07-17T01:15:37.105Z,72.00
2018-07-17T01:17:19.847Z,71.40
2018-07-17T01:18:57.330Z,73.60
2018-07-17T01:20:34.663Z,72.60
2018-07-17T01:22:11.081Z,75.00
2018-07-17T01:23:47.449Z,74.20
2018-07-17T01:25:27.822Z,75.00
2018-07-17T01:27:04.912Z,76.50
2018-07-17T01:28:41.481Z,76.70
2018-07-17T01:30:19.069Z,76.50
2018-07-17T01:31:55.446Z,76.40
2018-07-17T01:33:32.322Z,76.10
2018-07-17T01:35:08.714Z,75.60
2018-07-17T01:36:45.056Z,78.20
2018-07-17T01:38:22.414Z,77.30
2018-07-17T01:39:59.470Z,78.40
2018-07-17T01:41:37.267Z,77.80
2018-07-17T01:43:14.144Z,78.80
2018-07-17T01:44:50.845Z,79.50
2018-07-17T01:48:03.794Z,82.20
2018-07-17T01:49:40.255Z,82.90
2018-07-17T01:51:16.673Z,84.40
2018-07-17T01:52:53.670Z,84.20
2018-07-17T01:54:30.084Z,85.20
2018-07-17T01:56:06.678Z,85.60
2018-07-17T01:57:43.432Z,86.20
2018-07-17T01:59:20.931Z,86.70
2018-07-17T02:02:29.402Z,87.00
2018-07-17T02:04:05.783Z,87.30
2018-07-17T02:05:42.364Z,87.70
2018-07-17T02:07:18.729Z,87.40
2018-07-17T02:08:55.137Z,87.20
2018-07-17T02:10:31.613Z,86.00
2018-07-17T02:13:53.843Z,86.60
2018-07-17T02:17:06.972Z,84.70
2018-07-17T02:18:43.395Z,84.90
2018-07-17T02:20:19.790Z,85.00
2018-07-17T02:21:56.158Z,86.10
2018-07-17T02:23:32.877Z,86.60
2018-07-17T02:25:09.203Z,87.80
2018-07-17T02:26:45.589Z,89.00
2018-07-17T02:28:22.461Z,90.00
2018-07-17T02:29:59.376Z,90.20
2018-07-17T02:31:36.074Z,90.50
2018-07-17T02:33:14.024Z,90.80
2018-07-17T02:34:50.435Z,90.70
2018-07-17T02:36:27.292Z,90.80
2018-07-17T02:38:03.681Z,91.00
2018-07-17T02:39:47.567Z,91.40
2018-07-17T02:41:23.969Z,91.70
2018-07-17T02:43:01.285Z,91.60
2018-07-17T02:44:37.777Z,91.90
2018-07-17T02:46:18.057Z,91.90
2018-07-17T02:47:54.995Z,92.10
2018-07-17T02:49:33.077Z,92.30
2018-07-17T02:51:12.917Z,92.10
2018-07-17T02:56:02.223Z,93.90
2018-07-17T02:57:38.767Z,94.60
2018-07-17T02:59:15.147Z,95.20
2018-07-17T03:00:51.915Z,95.60
2018-07-17T03:02:28.766Z,95.70
2018-07-17T03:04:05.207Z,96.10
2018-07-17T03:05:41.626Z,96.50
2018-07-17T03:07:18.202Z,96.80
2018-07-17T03:08:54.780Z,96.90
2018-07-17T03:10:31.109Z,97.10
2018-07-17T03:12:07.617Z,97.10
2018-07-17T03:13:43.998Z,96.90
2018-07-17T03:17:17.579Z,96.60
2018-07-17T03:18:54.995Z,96.50
2018-07-17T03:20:31.410Z,96.60
2018-07-17T03:22:07.761Z,96.50
2018-07-17T03:23:44.129Z,96.50
2018-07-17T03:25:20.479Z,97.10
2018-07-17T03:26:56.882Z,97.40
2018-07-17T03:28:33.359Z,97.60
2018-07-17T03:30:10.366Z,97.60
2018-07-17T03:33:23.921Z,96.40
2018-07-17T03:35:01.235Z,95.40
2018-07-17T03:36:38.084Z,94.80
2018-07-17T03:38:14.469Z,94.20
2018-07-17T03:39:50.880Z,94.00
2018-07-17T03:41:27.799Z,93.80
2018-07-17T03:43:04.529Z,93.80
2018-07-17T03:44:41.224Z,93.70
2018-07-17T03:47:54.752Z,94.40
2018-07-17T03:49:31.222Z,94.30
2018-07-17T03:51:08.814Z,94.70
2018-07-17T03:52:45.024Z,94.60
2018-07-17T03:54:22.272Z,93.90
2018-07-17T03:55:58.562Z,93.90
2018-07-17T03:57:35.390Z,94.00
2018-07-17T03:59:11.729Z,94.20
2018-07-17T04:00:49.127Z,94.10
2018-07-17T04:02:26.190Z,94.10
2018-07-17T04:04:02.515Z,95.10
2018-07-17T04:05:40.444Z,95.80
2018-07-17T04:07:17.154Z,96.10
2018-07-17T04:08:53.587Z,96.00
2018-07-17T04:10:37.537Z,96.10
2018-07-17T04:12:17.261Z,96.30
2018-07-17T04:13:54.078Z,96.00
2018-07-17T04:15:31.071Z,96.10
2018-07-17T04:17:07.739Z,96.20
2018-07-17T04:18:44.178Z,96.40
2018-07-17T04:20:22.950Z,96.40
2018-07-17T04:22:01.039Z,96.60
2018-07-17T04:23:37.333Z,96.50
2018-07-17T04:25:18.614Z,96.50
2018-07-17T04:26:56.232Z,96.70
2018-07-17T04:28:33.900Z,96.90
2018-07-17T04:30:21.783Z,96.90
2018-07-17T04:32:05.091Z,96.30
2018-07-17T04:35:18.946Z,94.60
2018-07-17T04:36:56.229Z,94.20
2018-07-17T04:38:33.221Z,94.30
2018-07-17T04:40:17.423Z,94.90
2018-07-17T04:41:54.895Z,95.50
2018-07-17T04:43:32.540Z,95.70
2018-07-17T04:45:09.292Z,95.70
2018-07-17T04:48:22.066Z,96.40
2018-07-17T04:49:58.375Z,96.80
2018-07-17T04:51:36.639Z,97.00
2018-07-17T04:53:13.438Z,96.90
2018-07-17T04:54:50.821Z,96.70
2018-07-17T04:56:28.170Z,95.80
2018-07-17T04:58:04.498Z,95.80
2018-07-17T04:59:42.438Z,95.30
2018-07-17T05:01:21.647Z,94.80
2018-07-17T05:03:00.945Z,94.50
2018-07-17T05:04:37.538Z,94.00
2018-07-17T05:06:14.140Z,94.00
2018-07-17T05:07:50.434Z,93.10
2018-07-17T05:09:26.821Z,91.50
2018-07-17T05:11:03.424Z,91.10
2018-07-17T05:12:40.766Z,90.90
2018-07-17T05:14:18.139Z,91.30
2018-07-17T05:15:55.519Z,90.80
2018-07-17T05:17:34.055Z,90.20
2018-07-17T05:19:14.690Z,89.50
2018-07-17T05:20:51.393Z,87.50
2018-07-17T05:22:33.048Z,84.70
2018-07-17T05:24:09.706Z,81.90
2018-07-17T05:25:46.958Z,79.60
2018-07-17T05:27:23.892Z,81.50
2018-07-17T05:29:01.208Z,83.00
2018-07-17T05:30:40.331Z,83.90
2018-07-17T05:32:17.649Z,85.50
2018-07-17T05:33:55.105Z,84.70
2018-07-17T05:35:32.376Z,84.40
2018-07-17T05:37:09.195Z,84.10
2018-07-17T05:38:45.512Z,84.00
2018-07-17T05:40:31.401Z,83.90
2018-07-17T05:42:09.605Z,80.70
2018-07-17T05:43:46.306Z,78.50
2018-07-17T05:45:24.014Z,78.50
2018-07-17T05:47:02.607Z,79.10
2018-07-17T05:48:38.907Z,80.20
2018-07-17T05:50:15.375Z,81.00
2018-07-17T05:51:56.253Z,83.40
2018-07-17T05:53:32.603Z,84.40
2018-07-17T05:55:08.989Z,82.50
2018-07-17T05:56:46.801Z,83.70
2018-07-17T05:58:27.400Z,84.50
2018-07-17T06:00:04.501Z,83.60
2018-07-17T06:03:14.304Z,83.80
2018-07-17T06:04:51.996Z,80.20
2018-07-17T06:06:28.545Z,80.40
2018-07-17T06:08:10.231Z,79.80
2018-07-17T06:09:49.590Z,77.70
2018-07-17T06:11:28.565Z,75.90
2018-07-17T06:13:05.963Z,75.40
2018-07-17T06:14:42.421Z,75.10
2018-07-17T06:16:27.670Z,74.30
2018-07-17T06:18:04.913Z,74.80
2018-07-17T06:19:45.602Z,75.20
2018-07-17T06:21:21.925Z,75.00
2018-07-17T06:23:15.141Z,75.90
2018-07-17T06:26:36.917Z,75.10
2018-07-17T06:28:13.303Z,74.30
2018-07-17T06:31:24.659Z,74.90
2018-07-17T06:33:02.618Z,76.80
2018-07-17T06:36:17.870Z,74.40
2018-07-17T06:37:55.561Z,74.50
2018-07-17T06:39:34.048Z,74.30
2018-07-17T06:41:29.810Z,73.30
2018-07-17T06:43:14.495Z,73.30
2018-07-17T06:44:53.476Z,73.20
2018-07-17T06:46:30.253Z,73.50
2018-07-17T06:48:09.025Z,73.70
2018-07-17T06:49:47.593Z,74.00
2018-07-17T06:51:24.372Z,74.70
2018-07-17T06:57:18.909Z,76.10
2018-07-17T06:58:59.120Z,77.40
2018-07-17T07:00:36.272Z,82.10
2018-07-17T07:02:13.554Z,83.20
2018-07-17T07:03:49.866Z,84.40
2018-07-17T07:05:26.241Z,85.60
2018-07-17T07:08:42.530Z,85.00
2018-07-17T07:10:18.864Z,85.10
2018-07-17T07:12:03.351Z,85.30
2018-07-17T07:13:41.143Z,86.10
2018-07-17T07:15:17.944Z,88.70
2018-07-17T07:16:56.103Z,87.70
2018-07-17T07:18:34.402Z,87.80
2018-07-17T07:20:14.257Z,86.90
2018-07-17T07:21:58.444Z,86.90
2018-07-17T07:23:41.040Z,85.80
2018-07-17T07:25:17.717Z,86.70
2018-07-17T07:26:54.607Z,86.70
2018-07-17T07:28:31.540Z,87.50
2018-07-17T07:30:08.671Z,86.20
2018-07-17T07:31:45.390Z,85.50
2018-07-17T07:33:23.202Z,85.30
2018-07-17T07:34:59.531Z,85.20
2018-07-17T07:36:44.953Z,85.80
2018-07-17T07:38:21.634Z,85.50
2018-07-17T07:39:58.436Z,85.30
2018-07-17T07:41:35.617Z,85.10
2018-07-17T07:43:17.537Z,85.40
2018-07-17T07:46:33.566Z,85.90
2018-07-17T07:48:12.256Z,85.00
2018-07-17T07:49:48.641Z,85.10
2018-07-17T07:51:26.051Z,85.20
2018-07-17T07:53:03.122Z,84.40
2018-07-17T07:54:41.397Z,85.20
2018-07-17T07:56:18.439Z,85.20
2018-07-17T07:57:55.846Z,87.00
2018-07-17T07:59:50.905Z,87.00
2018-07-17T08:01:29.419Z,87.30
2018-07-17T08:03:17.499Z,87.30
2018-07-17T08:04:58.567Z,87.50
2018-07-17T08:06:37.002Z,87.80
2018-07-17T08:08:14.671Z,86.40
2018-07-17T08:09:52.883Z,85.70
2018-07-17T08:13:32.430Z,85.00
2018-07-17T08:15:13.842Z,84.70
2018-07-17T08:16:55.507Z,82.70
2018-07-17T08:18:32.478Z,82.70
2018-07-17T08:20:09.273Z,80.50
2018-07-17T08:21:47.333Z,78.90
2018-07-17T08:23:26.909Z,78.20
2018-07-17T08:25:05.109Z,78.20
2018-07-17T08:26:42.350Z,79.00
2018-07-17T08:28:19.277Z,78.30
2018-07-17T08:30:05.239Z,77.30
2018-07-17T08:32:29.348Z,78.90
2018-07-17T08:36:28.383Z,81.50
2018-07-17T08:38:10.884Z,80.10
2018-07-17T08:39:47.246Z,78.20
2018-07-17T08:41:26.522Z,76.90
2018-07-17T08:43:05.171Z,76.10
2018-07-17T08:44:41.651Z,76.30
2018-07-17T08:48:09.278Z,73.60
2018-07-17T08:52:22.479Z,74.30
2018-07-17T08:54:19.819Z,72.60
2018-07-17T08:55:57.240Z,72.90
2018-07-17T09:04:26.690Z,73.80
2018-07-17T09:06:10.531Z,73.70
2018-07-17T09:07:50.996Z,74.60
2018-07-17T09:09:27.315Z,73.10
2018-07-17T09:11:05.459Z,73.50
2018-07-17T09:12:42.553Z,72.60
2018-07-17T09:14:18.862Z,70.70
2018-07-17T09:15:56.097Z,70.60
2018-07-17T09:17:33.219Z,70.00
2018-07-17T09:19:10.752Z,67.80
2018-07-17T09:20:49.560Z,68.00
2018-07-17T09:22:26.185Z,68.50
2018-07-17T09:24:05.496Z,67.10
2018-07-17T09:25:47.228Z,66.70
2018-07-17T09:27:24.321Z,66.20
2018-07-17T09:29:03.363Z,66.70
2018-07-17T09:30:49.141Z,65.20
2018-07-17T09:32:30.035Z,65.60
2018-07-17T09:34:08.067Z,65.70
2018-07-17T09:35:45.373Z,63.60
2018-07-17T09:37:26.387Z,62.40
2018-07-17T09:39:07.980Z,62.90
2018-07-17T09:40:46.710Z,62.50
2018-07-17T09:42:24.765Z,62.80
2018-07-17T09:44:02.628Z,64.00
2018-07-17T09:45:41.389Z,64.10
2018-07-17T09:47:35.956Z,63.00
2018-07-17T09:49:17.384Z,63.30
2018-07-17T09:51:00.549Z,62.00
2018-07-17T09:52:41.425Z,61.20
2018-07-17T09:54:17.857Z,61.50
2018-07-17T09:55:54.807Z,61.50
2018-07-17T09:57:33.093Z,61.70
2018-07-17T09:59:11.336Z,61.90
2018-07-17T10:02:31.533Z,61.60
2018-07-17T10:04:08.922Z,62.80
2018-07-17T10:05:45.340Z,63.80
2018-07-17T10:09:11.957Z,63.20
2018-07-17T10:10:56.625Z,62.10
2018-07-17T10:12:37.874Z,61.00
2018-07-17T10:14:17.907Z,60.00
2018-07-17T10:15:56.501Z,59.40
2018-07-17T10:17:37.626Z,59.00
2018-07-17T10:19:14.811Z,58.90
2018-07-17T10:20:52.205Z,59.10
2018-07-17T10:22:33.712Z,59.30
2018-07-17T10:24:12.980Z,59.60
2018-07-17T10:25:54.198Z,59.40
2018-07-17T10:27:34.776Z,59.60
2018-07-17T10:29:22.709Z,58.90
2018-07-17T10:32:31.471Z,59.00
2018-07-17T10:34:09.625Z,58.10
2018-07-17T10:37:24.627Z,57.40
2018-07-17T10:39:12.099Z,56.50
2018-07-17T10:40:56.580Z,56.70
2018-07-17T10:42:38.558Z,56.90
2018-07-17T10:44:36.784Z,56.80
2018-07-17T10:46:13.518Z,57.80
2018-07-17T10:47:54.457Z,58.00
2018-07-17T10:49:46.001Z,57.70
2018-07-17T10:51:25.700Z,56.90
2018-07-17T10:53:08.290Z,57.10
2018-07-17T10:54:49.573Z,55.50
2018-07-17T10:56:28.331Z,55.30
2018-07-17T10:58:27.411Z,55.80
2018-07-17T11:00:22.797Z,56.00
2018-07-17T11:02:01.660Z,54.90
2018-07-17T11:03:40.497Z,54.20
2018-07-17T11:05:20.419Z,54.30
2018-07-17T11:07:06.658Z,54.20
2018-07-17T11:08:49.270Z,53.30
2018-07-17T11:10:28.557Z,54.00
2018-07-17T11:12:06.820Z,53.90
2018-07-17T11:13:45.387Z,53.30
2018-07-17T11:16:59.985Z,53.50
2018-07-17T11:18:36.940Z,52.50
2018-07-17T11:20:13.923Z,53.60
2018-07-17T11:21:54.621Z,53.40
2018-07-17T11:23:31.462Z,52.60
2018-07-17T11:25:10.434Z,52.50
2018-07-17T11:26:47.711Z,52.40
2018-07-17T11:28:24.152Z,53.40
2018-07-17T11:30:19.828Z,52.20
2018-07-17T11:32:26.517Z,51.00
2018-07-17T11:34:06.469Z,50.90
2018-07-17T11:35:45.411Z,50.30
2018-07-17T11:37:23.536Z,50.70
2018-07-17T11:39:00.778Z,51.20
2018-07-17T11:40:42.301Z,50.70
2018-07-17T11:42:27.491Z,51.30
2018-07-17T11:44:09.555Z,52.10
2018-07-17T11:45:46.263Z,51.10
2018-07-17T11:47:24.140Z,52.40
2018-07-17T11:49:01.619Z,51.30
2018-07-17T11:50:37.957Z,52.00
2018-07-17T11:52:14.370Z,51.70
2018-07-17T11:53:50.781Z,51.50
2018-07-17T11:55:28.393Z,51.10
2018-07-17T11:57:06.027Z,52.00
2018-07-17T11:58:42.402Z,52.00
2018-07-17T12:01:56.912Z,52.50
2018-07-17T12:03:35.198Z,52.00
2018-07-17T12:05:12.290Z,51.60
2018-07-17T12:07:02.639Z,51.50
2018-07-17T12:08:47.323Z,51.40
2018-07-17T12:10:24.387Z,51.10
2018-07-17T12:12:02.332Z,51.10
2018-07-17T12:13:45.200Z,50.80
2018-07-17T12:15:22.847Z,51.60
2018-07-17T12:17:05.337Z,52.20
2018-07-17T12:18:47.482Z,51.10
2018-07-17T12:20:26.349Z,51.20
2018-07-17T12:22:07.016Z,51.30
2018-07-17T12:23:45.698Z,50.00
2018-07-17T12:25:24.075Z,50.30
2018-07-17T12:27:02.093Z,50.80
2018-07-17T12:28:39.117Z,51.20
2018-07-17T12:30:21.099Z,51.30
2018-07-17T12:32:00.363Z,51.30
2018-07-17T12:33:41.308Z,51.10
2018-07-17T12:35:18.825Z,49.90
2018-07-17T12:36:56.552Z,49.40
2018-07-17T12:38:33.272Z,48.00
2018-07-17T12:42:25.359Z,47.50
2018-07-17T12:45:39.313Z,48.50
2018-07-17T12:47:17.445Z,49.10
2018-07-17T12:48:54.461Z,49.60
2018-07-17T12:50:32.190Z,48.50
2018-07-17T12:53:52.361Z,48.30
2018-07-17T12:55:30.426Z,48.40
2018-07-17T12:57:06.933Z,49.30
2018-07-17T12:58:44.835Z,50.10
2018-07-17T13:00:24.478Z,50.10
2018-07-17T13:03:53.627Z,50.70
2018-07-17T13:05:31.379Z,49.90
2018-07-17T13:08:39.997Z,49.30
2018-07-17T13:10:17.869Z,48.90
2018-07-17T13:11:59.646Z,49.20
2018-07-17T13:13:38.539Z,50.30
2018-07-17T13:17:09.897Z,49.70
2018-07-17T13:18:47.864Z,49.70
2018-07-17T13:20:25.877Z,50.10
2018-07-17T13:22:05.267Z,50.90
2018-07-17T13:23:47.660Z,50.80
2018-07-17T13:25:26.065Z,51.40
2018-07-17T13:27:09.746Z,50.60
2018-07-17T13:28:49.764Z,51.50
2018-07-17T13:30:28.551Z,51.10
2018-07-17T13:32:06.715Z,52.40
2018-07-17T13:33:42.998Z,51.30
2018-07-17T13:35:25.574Z,50.70
2018-07-17T13:37:02.061Z,50.80
2018-07-17T13:38:41.784Z,51.00
2018-07-17T13:40:19.476Z,51.10
2018-07-17T13:41:56.333Z,50.90
2018-07-17T13:43:35.546Z,50.80
2018-07-17T13:45:15.394Z,51.00
2018-07-17T13:46:54.899Z,51.10
2018-07-17T13:48:33.913Z,51.40
2018-07-17T13:50:12.804Z,50.80
2018-07-17T13:51:52.194Z,51.70
2018-07-17T13:53:30.598Z,50.40
2018-07-17T13:55:09.547Z,50.80
2018-07-17T13:56:52.158Z,51.40
2018-07-17T13:58:32.285Z,51.40
2018-07-17T14:00:12.443Z,50.90
2018-07-17T14:01:52.307Z,50.80
2018-07-17T14:03:29.285Z,51.20
2018-07-17T14:05:05.875Z,50.50
2018-07-17T14:06:42.258Z,50.00
2018-07-17T14:08:20.597Z,50.10
2018-07-17T14:09:58.146Z,49.90
2018-07-17T14:11:38.155Z,49.90
2018-07-17T14:13:14.482Z,50.00
2018-07-17T14:14:54.715Z,49.40
2018-07-17T14:18:09.414Z,49.80
2018-07-17T14:19:45.765Z,49.20
2018-07-17T14:21:23.805Z,49.60
2018-07-17T14:23:03.442Z,49.40
2018-07-17T14:24:42.727Z,49.60
2018-07-17T14:26:19.084Z,50.10
2018-07-17T14:27:57.179Z,49.80
2018-07-17T14:29:37.583Z,49.60
2018-07-17T14:31:24.428Z,48.40
2018-07-17T14:33:02.701Z,48.40
2018-07-17T14:34:40.849Z,48.80
2018-07-17T14:36:23.134Z,49.20
2018-07-17T14:38:02.887Z,48.80
2018-07-17T14:39:46.577Z,49.50
2018-07-17T14:41:27.643Z,48.60
2018-07-17T14:43:04.976Z,48.20
2018-07-17T14:46:48.599Z,48.80
2018-07-17T14:48:28.407Z,49.00
2018-07-17T14:50:06.846Z,50.70
2018-07-17T14:51:44.565Z,51.00
2018-07-17T14:53:23.481Z,50.20
2018-07-17T14:55:00.793Z,50.70
2018-07-17T14:56:37.598Z,50.50
2018-07-17T14:58:15.510Z,50.20
2018-07-17T14:59:53.325Z,50.10
2018-07-17T15:01:30.101Z,49.60
2018-07-17T15:03:08.734Z,49.30
2018-07-17T15:04:46.256Z,49.10
2018-07-17T15:06:22.688Z,49.60
2018-07-17T15:07:59.153Z,49.60
2018-07-17T15:09:35.630Z,48.80
2018-07-17T15:11:14.881Z,49.60
2018-07-17T15:12:52.635Z,50.00
2018-07-17T15:14:31.703Z,50.30
2018-07-17T15:17:46.781Z,51.10
2018-07-17T15:19:24.241Z,51.40
2018-07-17T15:21:01.901Z,51.40
2018-07-17T15:22:40.565Z,51.80
2018-07-17T15:25:59.404Z,51.50
2018-07-17T15:27:35.982Z,51.70
2018-07-17T15:29:12.248Z,51.90
2018-07-17T15:30:50.623Z,52.40
2018-07-17T15:32:27.568Z,52.40
2018-07-17T15:34:05.514Z,52.40
2018-07-17T15:35:44.734Z,52.20
2018-07-17T15:37:22.381Z,53.10
2018-07-17T15:38:58.689Z,53.10
2018-07-17T15:40:39.448Z,53.80
2018-07-17T15:42:18.825Z,53.90
2018-07-17T15:43:55.823Z,54.00
2018-07-17T15:47:08.796Z,54.30
2018-07-17T15:48:46.675Z,54.50
2018-07-17T15:50:22.965Z,54.40
2018-07-17T15:52:01.819Z,54.70
2018-07-17T15:53:43.525Z,55.10
2018-07-17T15:55:21.787Z,55.60
2018-07-17T15:57:00.445Z,55.50
2018-07-17T15:58:39.926Z,55.90
2018-07-17T16:00:24.630Z,56.20
2018-07-17T16:02:02.734Z,56.40
2018-07-17T16:03:41.606Z,56.50
2018-07-17T16:05:19.679Z,56.00
2018-07-17T16:06:57.849Z,56.20
2018-07-17T16:08:35.222Z,56.40
2018-07-17T16:10:12.645Z,56.90
2018-07-17T16:11:49.872Z,57.10
2018-07-17T16:13:32.716Z,55.90
2018-07-17T16:15:48.956Z,56.20
2018-07-17T16:17:26.794Z,55.80
2018-07-17T16:19:03.792Z,55.80
2018-07-17T16:20:40.198Z,55.90
2018-07-17T16:22:23.990Z,56.40
2018-07-17T16:24:02.463Z,56.10
2018-07-17T16:25:41.794Z,56.60
2018-07-17T16:27:22.382Z,56.70
2018-07-17T16:29:07.807Z,56.90
2018-07-17T16:32:42.720Z,56.20
2018-07-17T16:36:23.593Z,55.80
2018-07-17T16:38:00.524Z,55.30
2018-07-17T16:39:37.914Z,55.30
2018-07-17T16:41:14.576Z,55.90
2018-07-17T16:42:55.153Z,56.00
2018-07-17T16:44:46.723Z,56.40
2018-07-17T16:48:02.601Z,56.90
2018-07-17T16:49:42.401Z,56.70
2018-07-17T16:51:26.630Z,57.50
2018-07-17T16:53:04.085Z,57.20
2018-07-17T16:54:42.541Z,57.50
2018-07-17T16:56:20.868Z,57.80
2018-07-17T16:58:01.770Z,57.70
2018-07-17T16:59:39.981Z,57.80
2018-07-17T17:01:16.683Z,57.80
2018-07-17T17:02:54.473Z,58.00
2018-07-17T17:04:32.238Z,58.10
2018-07-17T17:06:12.065Z,57.30
2018-07-17T17:07:49.603Z,57.50
2018-07-17T17:09:27.403Z,57.60
2018-07-17T17:11:05.333Z,57.90
2018-07-17T17:12:44.001Z,58.50
2018-07-17T17:14:23.822Z,58.00
2018-07-17T17:16:02.431Z,58.50
2018-07-17T17:17:38.813Z,58.60
2018-07-17T17:26:52.532Z,57.90
2018-07-17T17:28:32.492Z,57.80
2018-07-17T17:30:19.223Z,57.80
2018-07-17T17:32:00.421Z,57.80
2018-07-17T17:33:39.690Z,56.90
2018-07-17T17:35:17.339Z,57.10
2018-07-17T17:36:55.622Z,57.70
2018-07-17T17:38:32.648Z,57.50
2018-07-17T17:40:14.077Z,57.50
2018-07-17T17:41:52.527Z,57.90
2018-07-17T17:43:29.605Z,58.30
2018-07-17T17:45:09.742Z,57.90
2018-07-17T17:46:47.596Z,57.80
2018-07-17T17:48:27.509Z,57.10
2018-07-17T17:50:05.601Z,56.90
2018-07-17T17:51:43.001Z,57.20
2018-07-17T17:53:22.986Z,56.90
2018-07-17T17:55:06.609Z,56.70
2018-07-17T17:56:50.510Z,56.40
2018-07-17T17:58:32.358Z,56.40
2018-07-17T18:00:10.844Z,56.10
2018-07-17T18:03:24.466Z,56.80
2018-07-17T18:05:08.303Z,56.70
2018-07-17T18:06:51.369Z,57.20
2018-07-17T18:08:30.076Z,56.80
2018-07-17T18:10:11.666Z,56.20
2018-07-17T18:11:50.733Z,55.80
2018-07-17T18:13:29.658Z,56.10
2018-07-17T18:15:08.555Z,55.90
2018-07-17T18:16:47.426Z,55.90
2018-07-17T18:20:06.649Z,56.90
2018-07-17T18:21:47.145Z,56.10
2018-07-17T18:24:59.373Z,56.40
2018-07-17T18:28:14.158Z,58.20
2018-07-17T18:31:29.547Z,60.60
2018-07-17T18:33:07.425Z,61.30
2018-07-17T18:34:44.328Z,62.10
2018-07-17T18:36:24.692Z,62.80
2018-07-17T18:38:01.679Z,63.50
2018-07-17T18:39:38.975Z,64.60
2018-07-17T18:41:17.644Z,65.90
2018-07-17T18:42:56.610Z,67.50
2018-07-17T18:44:37.253Z,67.60
2018-07-17T18:46:14.281Z,68.20
2018-07-17T18:47:55.915Z,69.20
2018-07-17T18:49:39.458Z,70.30
2018-07-17T18:51:17.513Z,71.30
2018-07-17T18:53:04.420Z,71.50
2018-07-17T18:54:43.055Z,71.60
2018-07-17T18:56:20.977Z,71.90
2018-07-17T18:57:57.853Z,72.30
2018-07-17T19:01:09.142Z,72.30
2018-07-17T19:03:00.323Z,72.50
2018-07-17T19:04:41.813Z,72.90
2018-07-17T19:06:35.343Z,73.10
2018-07-17T19:08:16.293Z,73.00
2018-07-17T19:09:52.705Z,73.00
2018-07-17T19:11:30.286Z,72.80
2018-07-17T19:13:10.413Z,72.40
2018-07-17T19:14:50.736Z,72.50
2018-07-17T19:16:28.031Z,73.30
2018-07-17T19:18:06.539Z,73.00
2018-07-17T19:19:48.203Z,73.20
2018-07-17T19:21:30.311Z,73.20
2018-07-17T19:23:07.435Z,73.20
2018-07-17T19:24:48.148Z,73.20
2018-07-17T19:26:33.952Z,73.20
2018-07-17T19:28:16.356Z,73.80
2018-07-17T19:30:05.529Z,74.00
2018-07-17T19:33:23.635Z,74.60
2018-07-17T19:35:00.689Z,74.50
2018-07-17T19:36:39.580Z,74.90
2018-07-17T19:38:19.855Z,75.00
2018-07-17T19:40:03.418Z,75.10
2018-07-17T19:41:43.322Z,75.20
2018-07-17T19:43:23.445Z,75.30
2018-07-17T19:45:01.369Z,76.20
2018-07-17T19:46:44.525Z,76.40
2018-07-17T19:48:27.383Z,76.60
2018-07-17T19:50:09.477Z,76.80
2018-07-17T19:52:01.176Z,77.30
2018-07-17T19:53:40.178Z,77.30
2018-07-17T19:55:21.198Z,77.30
2018-07-17T19:56:59.527Z,77.60
2018-07-17T19:58:39.350Z,78.00
2018-07-17T20:00:20.315Z,78.20
2018-07-17T20:01:57.849Z,78.40
2018-07-17T20:03:35.568Z,78.30
2018-07-17T20:05:12.276Z,78.50
2018-07-17T20:06:50.411Z,77.80
2018-07-17T20:08:27.905Z,77.80
2018-07-17T20:10:07.945Z,79.00
2018-07-17T20:11:46.522Z,77.70
2018-07-17T20:13:23.170Z,78.30
2018-07-17T20:14:59.720Z,77.50
2018-07-17T20:16:39.250Z,77.60
2018-07-17T20:18:17.012Z,77.60
2018-07-17T20:19:54.932Z,77.70
2018-07-17T20:21:34.986Z,78.30
2018-07-17T20:23:17.435Z,77.50
2018-07-17T20:24:55.848Z,77.60
2018-07-17T20:26:33.866Z,77.30
2018-07-17T20:28:12.206Z,77.20
2018-07-17T20:29:50.852Z,76.90
2018-07-17T20:31:28.037Z,75.80
2018-07-17T20:33:06.957Z,75.80
2018-07-17T20:34:49.074Z,75.20
2018-07-17T20:36:40.490Z,75.50
2018-07-17T20:38:22.252Z,75.70
2018-07-17T20:40:04.594Z,74.80
2018-07-17T20:44:00.236Z,74.20
2018-07-17T20:45:38.543Z,73.80
2018-07-17T20:47:17.291Z,73.50
2018-07-17T20:48:59.927Z,73.30
2018-07-17T20:50:38.018Z,73.10
2018-07-17T20:52:22.207Z,72.90
2018-07-17T20:54:01.895Z,72.60
2018-07-17T20:57:24.487Z,72.60
2018-07-17T20:59:03.552Z,72.40
2018-07-17T21:01:20.333Z,72.80
2018-07-17T21:03:03.475Z,72.70
2018-07-17T21:04:40.511Z,73.50
2018-07-17T21:06:42.253Z,73.50
2018-07-17T21:08:22.363Z,74.00
2018-07-17T21:10:04.809Z,74.90
2018-07-17T21:11:44.950Z,75.30
2018-07-17T21:13:21.540Z,75.90
2018-07-17T21:15:01.668Z,76.10
2018-07-17T21:18:19.729Z,77.50
2018-07-17T21:19:57.843Z,78.20
2018-07-17T21:21:35.937Z,78.50
2018-07-17T21:23:13.830Z,78.80
2018-07-17T21:24:55.455Z,78.90
2018-07-17T21:26:32.519Z,79.40
2018-07-17T21:28:10.653Z,80.40
2018-07-17T21:29:47.695Z,81.10
2018-07-17T21:31:28.590Z,81.80
2018-07-17T21:33:11.363Z,82.50
2018-07-17T21:35:06.952Z,82.60
2018-07-17T21:36:46.710Z,83.50
2018-07-17T21:38:23.708Z,83.40
2018-07-17T21:40:02.347Z,83.50
2018-07-17T21:41:45.597Z,83.20
2018-07-17T21:43:27.939Z,82.90
2018-07-17T21:45:12.096Z,82.90
2018-07-17T21:46:50.591Z,83.30
2018-07-17T21:48:33.857Z,83.70
2018-07-17T21:50:11.018Z,83.70
2018-07-17T21:51:49.161Z,84.20
2018-07-17T21:53:27.363Z,84.60
2018-07-17T21:55:05.194Z,84.80
2018-07-17T21:56:44.099Z,85.10
2018-07-17T21:58:21.229Z,85.30
2018-07-17T21:59:57.528Z,85.90
2018-07-17T22:01:35.536Z,86.30
2018-07-17T22:03:13.389Z,86.40
2018-07-17T22:04:54.401Z,86.90
2018-07-17T22:06:31.388Z,87.10
2018-07-17T22:08:09.415Z,87.60
2018-07-17T22:09:51.978Z,88.10
2018-07-17T22:11:29.399Z,88.40
2018-07-17T22:13:09.653Z,88.70
2018-07-17T22:14:46.756Z,89.10
2018-07-17T22:16:25.939Z,89.20
2018-07-17T22:18:02.481Z,89.60
2018-07-17T22:19:40.420Z,90.00
2018-07-17T22:23:02.271Z,90.50
2018-07-17T22:24:41.884Z,90.80
2018-07-17T22:26:18.281Z,90.40
2018-07-17T22:27:55.132Z,90.50
2018-07-17T22:29:32.321Z,90.50
2018-07-17T22:32:49.568Z,90.50
2018-07-17T22:34:30.611Z,90.60
2018-07-17T22:36:08.293Z,90.60
2018-07-17T22:37:46.375Z,90.70
2018-07-17T22:39:26.851Z,90.60
2018-07-17T22:41:03.581Z,90.60
2018-07-17T22:42:41.911Z,90.50
2018-07-17T22:44:19.448Z,90.40
2018-07-17T22:45:58.902Z,90.40
2018-07-17T22:47:35.764Z,90.50
2018-07-17T22:49:18.500Z,90.40
2018-07-17T22:50:56.277Z,90.40
2018-07-17T22:52:33.647Z,90.50
2018-07-17T22:54:14.527Z,90.30
2018-07-17T22:55:51.335Z,90.30
2018-07-17T22:57:28.295Z,90.00
2018-07-17T22:59:06.768Z,90.10
2018-07-17T23:00:43.806Z,90.50
2018-07-17T23:02:22.378Z,90.70
2018-07-17T23:03:59.798Z,90.70
2018-07-17T23:05:36.228Z,90.70
2018-07-17T23:07:12.603Z,90.70
2018-07-17T23:08:49.031Z,90.70
2018-07-17T23:10:27.287Z,90.60
2018-07-17T23:12:04.153Z,90.60